sensor_id;sensor_type;location;lat;lon;timestamp;pressure;altitude;pressure_sealevel;temperature;humidity
28797;BME280;24974;54.444;18.560;2023-01-20T00:01:16;100658.78;;;4.96;56.49
28797;BME280;24974;54.444;18.560;2023-01-20T00:03:47;100659.91;;;4.90;56.54
28797;BME280;24974;54.444;18.560;2023-01-20T00:06:20;100665.16;;;4.03;58.68
28797;BME280;24974;54.444;18.560;2023-01-20T00:08:52;100663.66;;;4.43;58.02
28797;BME280;24974;54.444;18.560;2023-01-20T00:11:24;100671.25;;;4.41;57.85
28797;BME280;24974;54.444;18.560;2023-01-20T00:13:57;100676.28;;;3.97;58.74
28797;BME280;24974;54.444;18.560;2023-01-20T00:16:29;100673.59;;;4.07;58.01
28797;BME280;24974;54.444;18.560;2023-01-20T00:19:02;100677.94;;;4.08;58.19
28797;BME280;24974;54.444;18.560;2023-01-20T00:21:32;100680.78;;;4.33;57.27
28797;BME280;24974;54.444;18.560;2023-01-20T00:24:05;100693.34;;;4.70;56.01
28797;BME280;24974;54.444;18.560;2023-01-20T00:26:36;100692.75;;;4.37;56.78
28797;BME280;24974;54.444;18.560;2023-01-20T00:29:07;100698.75;;;4.55;56.31
28797;BME280;24974;54.444;18.560;2023-01-20T00:31:38;100708.50;;;4.30;56.97
28797;BME280;24974;54.444;18.560;2023-01-20T00:34:09;100707.22;;;4.63;56.18
28797;BME280;24974;54.444;18.560;2023-01-20T00:36:41;100714.03;;;4.61;55.82
28797;BME280;24974;54.444;18.560;2023-01-20T00:39:12;100727.56;;;4.35;56.53
28797;BME280;24974;54.444;18.560;2023-01-20T00:41:42;100728.13;;;4.37;56.67
28797;BME280;24974;54.444;18.560;2023-01-20T06:33:26;101090.13;;;2.89;59.97
28797;BME280;24974;54.444;18.560;2023-01-20T06:35:57;101094.63;;;3.39;57.95
28797;BME280;24974;54.444;18.560;2023-01-20T06:38:30;101094.09;;;2.82;58.73
28797;BME280;24974;54.444;18.560;2023-01-20T06:41:04;101106.34;;;2.84;58.99
28797;BME280;24974;54.444;18.560;2023-01-20T06:43:35;101115.63;;;2.88;59.16
28797;BME280;24974;54.444;18.560;2023-01-20T06:46:13;101125.97;;;3.08;58.67
28797;BME280;24974;54.444;18.560;2023-01-20T06:48:45;101125.19;;;2.57;58.86
28797;BME280;24974;54.444;18.560;2023-01-20T06:51:18;101122.66;;;2.39;59.78
28797;BME280;24974;54.444;18.560;2023-01-20T06:53:49;101133.13;;;2.02;60.91
28797;BME280;24974;54.444;18.560;2023-01-20T06:56:21;101143.78;;;1.80;61.82
28797;BME280;24974;54.444;18.560;2023-01-20T06:58:52;101142.91;;;2.48;60.29
28797;BME280;24974;54.444;18.560;2023-01-20T07:01:26;101157.41;;;2.70;59.05
28797;BME280;24974;54.444;18.560;2023-01-20T07:03:57;101160.19;;;3.09;58.28
28797;BME280;24974;54.444;18.560;2023-01-20T07:06:34;101176.00;;;2.78;59.17
28797;BME280;24974;54.444;18.560;2023-01-20T07:09:10;101182.13;;;2.12;61.33
28797;BME280;24974;54.444;18.560;2023-01-20T07:11:41;101189.88;;;2.20;60.79
28797;BME280;24974;54.444;18.560;2023-01-20T07:14:12;101196.59;;;2.46;60.76
28797;BME280;24974;54.444;18.560;2023-01-20T07:16:43;101200.03;;;2.87;58.33
28797;BME280;24974;54.444;18.560;2023-01-20T07:19:13;101203.66;;;3.09;57.75
28797;BME280;24974;54.444;18.560;2023-01-20T07:21:44;101203.72;;;3.31;57.80
28797;BME280;24974;54.444;18.560;2023-01-20T07:24:15;101216.25;;;3.15;58.15
28797;BME280;24974;54.444;18.560;2023-01-20T07:26:47;101223.78;;;2.96;58.58
28797;BME280;24974;54.444;18.560;2023-01-20T07:29:18;101234.88;;;2.78;58.86
28797;BME280;24974;54.444;18.560;2023-01-20T07:31:49;101240.56;;;2.48;59.71
28797;BME280;24974;54.444;18.560;2023-01-20T07:34:20;101252.78;;;1.23;63.66
28797;BME280;24974;54.444;18.560;2023-01-20T07:36:51;101255.59;;;1.05;64.07
28797;BME280;24974;54.444;18.560;2023-01-20T07:39:22;101263.50;;;1.88;61.76
28797;BME280;24974;54.444;18.560;2023-01-20T07:41:53;101271.63;;;1.30;63.70
28797;BME280;24974;54.444;18.560;2023-01-20T07:44:24;101277.34;;;0.98;65.12
28797;BME280;24974;54.444;18.560;2023-01-20T07:46:56;101281.88;;;1.75;62.86
28797;BME280;24974;54.444;18.560;2023-01-20T07:49:27;101282.00;;;1.45;63.83
28797;BME280;24974;54.444;18.560;2023-01-20T07:51:58;101286.31;;;2.85;59.39
28797;BME280;24974;54.444;18.560;2023-01-20T07:54:29;101282.41;;;3.09;58.18
28797;BME280;24974;54.444;18.560;2023-01-20T07:57:00;101286.06;;;2.86;58.47
28797;BME280;24974;54.444;18.560;2023-01-20T07:59:31;101296.81;;;3.26;57.32
28797;BME280;24974;54.444;18.560;2023-01-20T08:02:02;101303.06;;;2.13;59.95
28797;BME280;24974;54.444;18.560;2023-01-20T08:04:33;101310.25;;;2.88;58.58
28797;BME280;24974;54.444;18.560;2023-01-20T08:07:04;101311.09;;;2.60;59.72
28797;BME280;24974;54.444;18.560;2023-01-20T08:09:35;101320.44;;;2.40;58.97
28797;BME280;24974;54.444;18.560;2023-01-20T08:12:06;101315.13;;;2.57;59.15
28797;BME280;24974;54.444;18.560;2023-01-20T08:14:37;101323.59;;;2.09;60.07
28797;BME280;24974;54.444;18.560;2023-01-20T08:17:07;101323.75;;;2.42;59.30
28797;BME280;24974;54.444;18.560;2023-01-20T08:19:38;101321.03;;;2.83;58.04
28797;BME280;24974;54.444;18.560;2023-01-20T08:22:09;101323.94;;;3.38;56.78
28797;BME280;24974;54.444;18.560;2023-01-20T08:24:40;101333.50;;;3.12;56.91
28797;BME280;24974;54.444;18.560;2023-01-20T08:27:11;101331.84;;;3.40;56.87
28797;BME280;24974;54.444;18.560;2023-01-20T08:29:42;101332.34;;;2.79;57.69
28797;BME280;24974;54.444;18.560;2023-01-20T08:32:13;101336.28;;;2.72;58.25
28797;BME280;24974;54.444;18.560;2023-01-20T08:34:43;101328.47;;;3.04;58.01
28797;BME280;24974;54.444;18.560;2023-01-20T08:37:14;101343.28;;;3.58;56.44
28797;BME280;24974;54.444;18.560;2023-01-20T08:39:45;101341.06;;;3.39;56.87
28797;BME280;24974;54.444;18.560;2023-01-20T08:42:16;101337.41;;;3.33;57.30
28797;BME280;24974;54.444;18.560;2023-01-20T08:44:51;101345.25;;;3.46;57.57
28797;BME280;24974;54.444;18.560;2023-01-20T08:47:22;101348.47;;;3.93;55.62
28797;BME280;24974;54.444;18.560;2023-01-20T08:49:53;101353.91;;;3.93;55.29
28797;BME280;24974;54.444;18.560;2023-01-20T08:52:24;101350.50;;;4.03;55.47
28797;BME280;24974;54.444;18.560;2023-01-20T08:54:55;101349.59;;;3.14;58.39
28797;BME280;24974;54.444;18.560;2023-01-20T08:57:26;101353.00;;;3.09;58.35
28797;BME280;24974;54.444;18.560;2023-01-20T08:59:57;101356.41;;;2.88;58.06
28797;BME280;24974;54.444;18.560;2023-01-20T09:02:28;101359.84;;;2.83;58.13
28797;BME280;24974;54.444;18.560;2023-01-20T09:04:59;101359.06;;;2.71;58.48
28797;BME280;24974;54.444;18.560;2023-01-20T09:07:30;101361.47;;;2.56;59.19
28797;BME280;24974;54.444;18.560;2023-01-20T09:10:01;101366.78;;;2.91;57.49
28797;BME280;24974;54.444;18.560;2023-01-20T09:12:32;101365.16;;;2.78;58.32
28797;BME280;24974;54.444;18.560;2023-01-20T09:15:04;101373.38;;;2.66;58.23
28797;BME280;24974;54.444;18.560;2023-01-20T09:17:37;101371.53;;;2.43;59.30
28797;BME280;24974;54.444;18.560;2023-01-20T09:20:08;101376.78;;;2.62;58.40
28797;BME280;24974;54.444;18.560;2023-01-20T09:22:39;101378.50;;;3.36;57.15
28797;BME280;24974;54.444;18.560;2023-01-20T09:25:10;101379.13;;;2.70;58.71
28797;BME280;24974;54.444;18.560;2023-01-20T09:27:41;101384.69;;;2.63;59.12
28797;BME280;24974;54.444;18.560;2023-01-20T09:30:12;101386.50;;;2.98;57.96
28797;BME280;24974;54.444;18.560;2023-01-20T09:32:43;101383.78;;;2.86;57.31
28797;BME280;24974;54.444;18.560;2023-01-20T09:56:21;101396.97;;;2.54;58.93
28797;BME280;24974;54.444;18.560;2023-01-20T09:59:09;101392.56;;;2.76;58.41
28797;BME280;24974;54.444;18.560;2023-01-20T10:01:50;101381.41;;;3.18;56.93
28797;BME280;24974;54.444;18.560;2023-01-20T10:04:25;101385.22;;;3.62;56.31
28797;BME280;24974;54.444;18.560;2023-01-20T10:09:49;101378.88;;;3.74;55.92
28797;BME280;24974;54.444;18.560;2023-01-20T10:12:32;101381.59;;;3.74;56.40
28797;BME280;24974;54.444;18.560;2023-01-20T10:15:29;101381.31;;;3.42;57.08
28797;BME280;24974;54.444;18.560;2023-01-20T10:18:06;101373.38;;;2.55;58.45
28797;BME280;24974;54.444;18.560;2023-01-20T10:23:21;101376.56;;;3.20;57.63
28797;BME280;24974;54.444;18.560;2023-01-20T10:26:06;101379.13;;;3.27;57.72
28797;BME280;24974;54.444;18.560;2023-01-20T10:28:55;101378.41;;;2.74;58.72
28797;BME280;24974;54.444;18.560;2023-01-20T10:31:41;101380.50;;;2.84;59.14
28797;BME280;24974;54.444;18.560;2023-01-20T10:34:18;101385.03;;;3.07;58.57
28797;BME280;24974;54.444;18.560;2023-01-20T10:37:01;101381.09;;;2.22;60.62
28797;BME280;24974;54.444;18.560;2023-01-20T10:42:28;101374.53;;;3.27;57.98
28797;BME280;24974;54.444;18.560;2023-01-20T10:44:59;101369.72;;;3.63;57.18
28797;BME280;24974;54.444;18.560;2023-01-20T10:47:49;101380.44;;;2.96;58.28
28797;BME280;24974;54.444;18.560;2023-01-20T10:50:27;101379.00;;;2.76;59.02
28797;BME280;24974;54.444;18.560;2023-01-20T10:53:22;101397.00;;;2.94;58.98
28797;BME280;24974;54.444;18.560;2023-01-20T10:59:07;101404.25;;;3.79;56.68
28797;BME280;24974;54.444;18.560;2023-01-20T11:01:44;101400.47;;;3.35;56.74
28797;BME280;24974;54.444;18.560;2023-01-20T11:04:18;101405.03;;;4.30;54.46
28797;BME280;24974;54.444;18.560;2023-01-20T11:06:56;101404.06;;;4.19;55.34
28797;BME280;24974;54.444;18.560;2023-01-20T11:09:34;101413.53;;;4.00;55.00
28797;BME280;24974;54.444;18.560;2023-01-20T11:12:26;101407.66;;;3.41;56.82
28797;BME280;24974;54.444;18.560;2023-01-20T11:14:59;101415.44;;;3.83;55.89
28797;BME280;24974;54.444;18.560;2023-01-20T11:17:30;101415.84;;;3.91;56.07
28797;BME280;24974;54.444;18.560;2023-01-20T11:20:04;101420.16;;;4.04;56.29
28797;BME280;24974;54.444;18.560;2023-01-20T11:22:36;101425.06;;;4.63;54.27
28797;BME280;24974;54.444;18.560;2023-01-20T11:25:21;101427.97;;;4.34;53.94
28797;BME280;24974;54.444;18.560;2023-01-20T11:27:53;101425.09;;;5.07;53.83
28797;BME280;24974;54.444;18.560;2023-01-20T11:30:27;101435.31;;;4.34;55.77
28797;BME280;24974;54.444;18.560;2023-01-20T11:36:01;101431.44;;;3.96;55.69
28797;BME280;24974;54.444;18.560;2023-01-20T11:38:47;101429.31;;;4.54;55.19
28797;BME280;24974;54.444;18.560;2023-01-20T11:41:26;101425.69;;;4.48;54.76
28797;BME280;24974;54.444;18.560;2023-01-20T11:43:58;101442.28;;;3.62;57.11
28797;BME280;24974;54.444;18.560;2023-01-20T11:46:32;101449.56;;;4.07;55.42
28797;BME280;24974;54.444;18.560;2023-01-20T11:49:21;101451.44;;;4.57;54.56
28797;BME280;24974;54.444;18.560;2023-01-20T11:51:55;101451.00;;;4.87;53.81
28797;BME280;24974;54.444;18.560;2023-01-20T11:54:27;101451.56;;;4.67;54.67
28797;BME280;24974;54.444;18.560;2023-01-20T11:57:02;101440.59;;;5.55;52.23
28797;BME280;24974;54.444;18.560;2023-01-20T11:59:46;101443.84;;;5.79;51.63
28797;BME280;24974;54.444;18.560;2023-01-20T12:02:22;101443.09;;;5.88;51.72
28797;BME280;24974;54.444;18.560;2023-01-20T12:05:09;101451.19;;;5.51;52.20
28797;BME280;24974;54.444;18.560;2023-01-20T12:07:48;101445.72;;;4.81;53.51
28797;BME280;24974;54.444;18.560;2023-01-20T12:10:33;101451.75;;;5.26;52.81
28797;BME280;24974;54.444;18.560;2023-01-20T12:13:17;101450.97;;;6.12;50.66
28797;BME280;24974;54.444;18.560;2023-01-20T12:15:55;101452.69;;;6.23;50.17
28797;BME280;24974;54.444;18.560;2023-01-20T12:18:37;101464.81;;;5.02;52.21
28797;BME280;24974;54.444;18.560;2023-01-20T12:21:14;101454.25;;;5.55;51.18
28797;BME280;24974;54.444;18.560;2023-01-20T12:26:33;101466.69;;;6.79;48.99
28797;BME280;24974;54.444;18.560;2023-01-20T12:31:45;101474.50;;;5.91;50.64
28797;BME280;24974;54.444;18.560;2023-01-20T12:34:26;101473.28;;;6.04;50.04
28797;BME280;24974;54.444;18.560;2023-01-20T13:01:06;101537.03;;;5.71;51.75
28797;BME280;24974;54.444;18.560;2023-01-20T13:12:02;101548.59;;;5.83;51.63
28797;BME280;24974;54.444;18.560;2023-01-20T13:14:47;101551.88;;;6.07;51.22
28797;BME280;24974;54.444;18.560;2023-01-20T13:17:41;101561.81;;;5.69;51.28
28797;BME280;24974;54.444;18.560;2023-01-20T13:20:24;101570.16;;;6.06;50.48
28797;BME280;24974;54.444;18.560;2023-01-20T13:22:58;101578.25;;;5.96;50.58
28797;BME280;24974;54.444;18.560;2023-01-20T13:25:32;101567.78;;;6.42;49.88
28797;BME280;24974;54.444;18.560;2023-01-20T13:28:04;101576.03;;;6.52;49.37
28797;BME280;24974;54.444;18.560;2023-01-20T13:30:42;101581.25;;;6.54;49.11
28797;BME280;24974;54.444;18.560;2023-01-20T13:36:18;101607.56;;;5.01;52.80
28797;BME280;24974;54.444;18.560;2023-01-20T13:41:59;101582.34;;;5.77;50.94
28797;BME280;24974;54.444;18.560;2023-01-20T13:44:37;101582.13;;;5.78;50.58
28797;BME280;24974;54.444;18.560;2023-01-20T13:47:09;101590.44;;;5.67;50.43
28797;BME280;24974;54.444;18.560;2023-01-20T13:52:11;101583.13;;;6.21;49.00
28797;BME280;24974;54.444;18.560;2023-01-20T13:54:44;101590.25;;;5.73;50.23
28797;BME280;24974;54.444;18.560;2023-01-20T13:59:53;101607.13;;;5.92;50.31
28797;BME280;24974;54.444;18.560;2023-01-20T14:02:25;101622.84;;;5.63;51.02
28797;BME280;24974;54.444;18.560;2023-01-20T14:04:56;101626.56;;;6.01;50.05
28797;BME280;24974;54.444;18.560;2023-01-20T14:07:29;101627.38;;;5.96;50.52
28797;BME280;24974;54.444;18.560;2023-01-20T14:10:00;101636.03;;;6.15;50.30
28797;BME280;24974;54.444;18.560;2023-01-20T14:12:39;101642.50;;;5.87;51.04
28797;BME280;24974;54.444;18.560;2023-01-20T14:15:24;101643.75;;;5.57;52.13
28797;BME280;24974;54.444;18.560;2023-01-20T14:17:57;101636.59;;;5.51;52.51
28797;BME280;24974;54.444;18.560;2023-01-20T14:20:29;101629.94;;;4.87;53.69
28797;BME280;24974;54.444;18.560;2023-01-20T14:23:26;101639.09;;;5.14;53.49
28797;BME280;24974;54.444;18.560;2023-01-20T14:26:27;101645.81;;;5.28;52.21
28797;BME280;24974;54.444;18.560;2023-01-20T14:29:00;101640.41;;;5.50;52.45
28797;BME280;24974;54.444;18.560;2023-01-20T14:31:38;101649.97;;;5.14;52.58
28797;BME280;24974;54.444;18.560;2023-01-20T14:34:29;101645.81;;;5.28;51.90
28797;BME280;24974;54.444;18.560;2023-01-20T14:39:56;101652.34;;;4.43;54.27
28797;BME280;24974;54.444;18.560;2023-01-20T14:42:28;101653.56;;;4.36;54.63
28797;BME280;24974;54.444;18.560;2023-01-20T14:45:00;101658.38;;;4.45;54.67
28797;BME280;24974;54.444;18.560;2023-01-20T14:47:32;101660.84;;;4.47;53.83
28797;BME280;24974;54.444;18.560;2023-01-20T14:50:03;101661.28;;;4.72;53.29
28797;BME280;24974;54.444;18.560;2023-01-20T14:52:34;101656.44;;;4.74;53.41
28797;BME280;24974;54.444;18.560;2023-01-20T14:55:25;101670.69;;;4.19;54.71
28797;BME280;24974;54.444;18.560;2023-01-20T14:57:57;101677.94;;;4.42;54.88
28797;BME280;24974;54.444;18.560;2023-01-20T15:00:30;101685.13;;;4.20;55.17
28797;BME280;24974;54.444;18.560;2023-01-20T15:03:15;101693.66;;;4.12;55.17
28797;BME280;24974;54.444;18.560;2023-01-20T15:16:25;101688.03;;;3.90;55.51
28797;BME280;24974;54.444;18.560;2023-01-20T15:22:13;101690.53;;;4.48;54.73
28797;BME280;24974;54.444;18.560;2023-01-20T15:24:46;101704.63;;;3.77;55.55
28797;BME280;24974;54.444;18.560;2023-01-20T15:27:29;101707.06;;;4.59;54.10
28797;BME280;24974;54.444;18.560;2023-01-20T15:30:16;101722.50;;;4.70;53.40
28797;BME280;24974;54.444;18.560;2023-01-20T15:32:51;101737.78;;;4.71;53.84
28797;BME280;24974;54.444;18.560;2023-01-20T15:35:23;101740.69;;;4.81;53.55
28797;BME280;24974;54.444;18.560;2023-01-20T15:37:55;101742.28;;;5.11;53.54
28797;BME280;24974;54.444;18.560;2023-01-20T15:40:26;101745.50;;;4.91;53.24
28797;BME280;24974;54.444;18.560;2023-01-20T15:42:57;101747.41;;;5.07;53.51
28797;BME280;24974;54.444;18.560;2023-01-20T15:45:28;101751.28;;;4.94;53.37
28797;BME280;24974;54.444;18.560;2023-01-20T15:47:59;101742.38;;;4.99;53.81
28797;BME280;24974;54.444;18.560;2023-01-20T15:50:30;101744.84;;;4.55;54.11
28797;BME280;24974;54.444;18.560;2023-01-20T15:53:02;101746.47;;;4.85;54.19
28797;BME280;24974;54.444;18.560;2023-01-20T15:55:34;101759.41;;;4.49;55.19
28797;BME280;24974;54.444;18.560;2023-01-20T15:58:19;101771.28;;;4.03;55.68
28797;BME280;24974;54.444;18.560;2023-01-20T16:00:51;101770.41;;;4.26;55.80
28797;BME280;24974;54.444;18.560;2023-01-20T16:03:23;101774.69;;;4.78;54.52
28797;BME280;24974;54.444;18.560;2023-01-20T16:05:55;101786.53;;;4.72;54.74
28797;BME280;24974;54.444;18.560;2023-01-20T16:08:32;101786.94;;;4.24;55.72
28797;BME280;24974;54.444;18.560;2023-01-20T16:11:05;101790.97;;;4.21;55.78
28797;BME280;24974;54.444;18.560;2023-01-20T16:13:37;101803.94;;;4.71;54.70
28797;BME280;24974;54.444;18.560;2023-01-20T16:16:15;101812.84;;;4.95;54.27
28797;BME280;24974;54.444;18.560;2023-01-20T16:18:47;101821.06;;;5.29;53.80
28797;BME280;24974;54.444;18.560;2023-01-20T16:21:18;101818.94;;;4.86;54.54
28797;BME280;24974;54.444;18.560;2023-01-20T16:23:49;101836.38;;;4.44;55.70
28797;BME280;24974;54.444;18.560;2023-01-20T16:26:22;101843.97;;;4.31;55.79
28797;BME280;24974;54.444;18.560;2023-01-20T16:28:55;101842.13;;;5.17;53.72
28797;BME280;24974;54.444;18.560;2023-01-20T16:31:27;101846.63;;;5.40;53.07
28797;BME280;24974;54.444;18.560;2023-01-20T16:33:58;101847.88;;;5.03;53.88
28797;BME280;24974;54.444;18.560;2023-01-20T16:36:29;101848.66;;;5.16;53.50
28797;BME280;24974;54.444;18.560;2023-01-20T16:39:00;101854.47;;;4.51;55.58
28797;BME280;24974;54.444;18.560;2023-01-20T16:41:30;101869.06;;;4.21;56.27
28797;BME280;24974;54.444;18.560;2023-01-20T16:44:02;101872.25;;;4.41;55.31
28797;BME280;24974;54.444;18.560;2023-01-20T16:46:33;101874.81;;;4.48;55.40
28797;BME280;24974;54.444;18.560;2023-01-20T16:49:05;101887.09;;;5.02;53.82
28797;BME280;24974;54.444;18.560;2023-01-20T16:51:36;101894.56;;;4.55;54.92
28797;BME280;24974;54.444;18.560;2023-01-20T16:54:08;101897.66;;;4.47;55.60
28797;BME280;24974;54.444;18.560;2023-01-20T16:56:39;101898.44;;;4.71;54.29
28797;BME280;24974;54.444;18.560;2023-01-20T16:59:10;101892.78;;;5.01;53.78
28797;BME280;24974;54.444;18.560;2023-01-20T17:01:41;101892.41;;;5.09;53.39
28797;BME280;24974;54.444;18.560;2023-01-20T17:04:12;101894.72;;;4.89;54.24
28797;BME280;24974;54.444;18.560;2023-01-20T17:06:42;101901.00;;;4.14;56.64
28797;BME280;24974;54.444;18.560;2023-01-20T17:09:13;101914.00;;;4.47;55.87
28797;BME280;24974;54.444;18.560;2023-01-20T17:11:44;101906.03;;;4.69;54.94
28797;BME280;24974;54.444;18.560;2023-01-20T17:14:15;101908.53;;;4.59;55.59
28797;BME280;24974;54.444;18.560;2023-01-20T17:16:46;101912.59;;;4.44;55.69
28797;BME280;24974;54.444;18.560;2023-01-20T17:19:17;101918.50;;;4.41;55.50
28797;BME280;24974;54.444;18.560;2023-01-20T17:21:48;101923.78;;;5.12;54.28
28797;BME280;24974;54.444;18.560;2023-01-20T17:24:19;101926.31;;;5.30;53.53
28797;BME280;24974;54.444;18.560;2023-01-20T17:26:50;101927.97;;;4.39;55.53
28797;BME280;24974;54.444;18.560;2023-01-20T17:29:21;101930.78;;;4.67;55.28
28797;BME280;24974;54.444;18.560;2023-01-20T17:31:52;101931.44;;;4.98;54.88
28797;BME280;24974;54.444;18.560;2023-01-20T17:34:23;101942.22;;;4.93;54.40
28797;BME280;24974;54.444;18.560;2023-01-20T17:36:54;101947.22;;;5.13;54.07
28797;BME280;24974;54.444;18.560;2023-01-20T17:39:25;101946.19;;;5.02;54.77
28797;BME280;24974;54.444;18.560;2023-01-20T17:41:55;101956.81;;;4.63;55.40
28797;BME280;24974;54.444;18.560;2023-01-20T17:44:26;101953.66;;;5.07;54.72
28797;BME280;24974;54.444;18.560;2023-01-20T17:46:57;101958.41;;;5.40;53.90
28797;BME280;24974;54.444;18.560;2023-01-20T17:49:28;101969.53;;;4.34;56.83
28797;BME280;24974;54.444;18.560;2023-01-20T17:51:59;101984.16;;;4.80;56.08
28797;BME280;24974;54.444;18.560;2023-01-20T17:54:30;101980.00;;;4.77;56.36
28797;BME280;24974;54.444;18.560;2023-01-20T17:57:01;101987.69;;;4.92;56.15
28797;BME280;24974;54.444;18.560;2023-01-20T17:59:31;101995.50;;;4.07;58.08
28797;BME280;24974;54.444;18.560;2023-01-20T18:02:02;101992.81;;;4.65;57.25
28797;BME280;24974;54.444;18.560;2023-01-20T18:04:34;101997.41;;;4.06;58.98
28797;BME280;24974;54.444;18.560;2023-01-20T18:07:05;101998.72;;;4.15;58.42
28797;BME280;24974;54.444;18.560;2023-01-20T18:09:36;102009.81;;;4.14;58.20
28797;BME280;24974;54.444;18.560;2023-01-20T18:12:07;102016.59;;;4.23;58.08
28797;BME280;24974;54.444;18.560;2023-01-20T18:14:38;102009.13;;;3.65;59.38
28797;BME280;24974;54.444;18.560;2023-01-20T18:17:08;102006.81;;;4.57;57.63
28797;BME280;24974;54.444;18.560;2023-01-20T18:19:39;102013.06;;;4.34;57.50
28797;BME280;24974;54.444;18.560;2023-01-20T18:22:10;102011.19;;;4.58;56.58
28797;BME280;24974;54.444;18.560;2023-01-20T18:24:41;102016.34;;;3.41;59.67
28797;BME280;24974;54.444;18.560;2023-01-20T18:27:12;102024.63;;;3.76;58.61
28797;BME280;24974;54.444;18.560;2023-01-20T18:29:44;102028.09;;;3.83;58.90
28797;BME280;24974;54.444;18.560;2023-01-20T18:32:15;102030.88;;;4.07;57.29
28797;BME280;24974;54.444;18.560;2023-01-20T18:34:45;102031.94;;;4.06;57.82
28797;BME280;24974;54.444;18.560;2023-01-20T18:37:16;102034.50;;;4.42;56.08
28797;BME280;24974;54.444;18.560;2023-01-20T18:39:47;102034.34;;;4.72;56.11
28797;BME280;24974;54.444;18.560;2023-01-20T18:42:18;102040.88;;;4.48;56.89
28797;BME280;24974;54.444;18.560;2023-01-20T18:44:49;102046.06;;;4.73;56.00
28797;BME280;24974;54.444;18.560;2023-01-20T18:47:19;102055.19;;;3.90;58.60
28797;BME280;24974;54.444;18.560;2023-01-20T18:49:50;102063.53;;;3.47;59.40
28797;BME280;24974;54.444;18.560;2023-01-20T18:52:21;102061.19;;;3.32;60.51
28797;BME280;24974;54.444;18.560;2023-01-20T18:54:52;102056.91;;;4.14;57.83
28797;BME280;24974;54.444;18.560;2023-01-20T18:57:22;102056.41;;;3.94;57.64
28797;BME280;24974;54.444;18.560;2023-01-20T18:59:53;102061.38;;;3.97;58.01
28797;BME280;24974;54.444;18.560;2023-01-20T19:02:24;102059.72;;;3.96;58.69
28797;BME280;24974;54.444;18.560;2023-01-20T19:04:54;102065.41;;;4.06;58.34
28797;BME280;24974;54.444;18.560;2023-01-20T19:07:25;102077.53;;;3.92;58.60
28797;BME280;24974;54.444;18.560;2023-01-20T19:09:56;102069.75;;;4.37;57.42
28797;BME280;24974;54.444;18.560;2023-01-20T19:12:27;102074.31;;;4.13;57.93
28797;BME280;24974;54.444;18.560;2023-01-20T19:14:57;102082.09;;;3.50;59.30
28797;BME280;24974;54.444;18.560;2023-01-20T19:17:28;102081.31;;;4.33;56.67
28797;BME280;24974;54.444;18.560;2023-01-20T19:20:00;102079.84;;;4.60;56.91
28797;BME280;24974;54.444;18.560;2023-01-20T19:22:31;102083.44;;;4.31;57.11
28797;BME280;24974;54.444;18.560;2023-01-20T19:25:02;102080.06;;;4.70;56.28
28797;BME280;24974;54.444;18.560;2023-01-20T19:27:32;102073.19;;;5.03;55.23
28797;BME280;24974;54.444;18.560;2023-01-20T19:30:03;102089.81;;;4.25;57.17
28797;BME280;24974;54.444;18.560;2023-01-20T19:32:38;102085.06;;;4.73;56.93
28797;BME280;24974;54.444;18.560;2023-01-20T19:35:10;102085.16;;;4.67;56.49
28797;BME280;24974;54.444;18.560;2023-01-20T19:37:41;102089.06;;;4.71;56.31
28797;BME280;24974;54.444;18.560;2023-01-20T19:40:13;102091.34;;;4.74;56.69
28797;BME280;24974;54.444;18.560;2023-01-20T19:42:43;102100.19;;;5.04;55.60
28797;BME280;24974;54.444;18.560;2023-01-20T19:45:18;102099.75;;;4.84;56.30
28797;BME280;24974;54.444;18.560;2023-01-20T19:47:49;102103.88;;;4.87;56.37
28797;BME280;24974;54.444;18.560;2023-01-20T19:50:19;102098.53;;;5.15;55.91
28797;BME280;24974;54.444;18.560;2023-01-20T19:52:50;102104.09;;;4.08;58.23
28797;BME280;24974;54.444;18.560;2023-01-20T19:55:21;102112.78;;;5.05;55.87
28797;BME280;24974;54.444;18.560;2023-01-20T19:57:52;102109.41;;;5.27;55.18
28797;BME280;24974;54.444;18.560;2023-01-20T20:00:24;102118.09;;;4.24;58.49
28797;BME280;24974;54.444;18.560;2023-01-20T20:02:54;102116.50;;;4.04;59.22
28797;BME280;24974;54.444;18.560;2023-01-20T20:05:25;102112.34;;;3.72;59.89
28797;BME280;24974;54.444;18.560;2023-01-20T20:07:57;102110.09;;;3.99;58.60
28797;BME280;24974;54.444;18.560;2023-01-20T20:10:28;102116.72;;;3.73;59.57
28797;BME280;24974;54.444;18.560;2023-01-20T20:12:59;102117.88;;;3.28;60.77
28797;BME280;24974;54.444;18.560;2023-01-20T20:15:30;102117.50;;;3.91;59.13
28797;BME280;24974;54.444;18.560;2023-01-20T20:18:01;102124.88;;;3.73;59.77
28797;BME280;24974;54.444;18.560;2023-01-20T20:20:32;102110.78;;;3.46;60.17
28797;BME280;24974;54.444;18.560;2023-01-20T20:23:03;102105.06;;;3.54;60.21
28797;BME280;24974;54.444;18.560;2023-01-20T20:25:34;102110.06;;;4.29;58.58
28797;BME280;24974;54.444;18.560;2023-01-20T20:28:06;102111.19;;;4.63;57.31
28797;BME280;24974;54.444;18.560;2023-01-20T20:30:37;102115.78;;;4.09;58.59
28797;BME280;24974;54.444;18.560;2023-01-20T20:33:11;102112.16;;;4.68;56.90
28797;BME280;24974;54.444;18.560;2023-01-20T20:35:42;102116.25;;;4.36;57.75
28797;BME280;24974;54.444;18.560;2023-01-20T20:38:13;102118.31;;;4.10;57.95
28797;BME280;24974;54.444;18.560;2023-01-20T20:40:43;102127.06;;;4.54;57.11
28797;BME280;24974;54.444;18.560;2023-01-20T20:43:14;102128.78;;;4.37;57.41
28797;BME280;24974;54.444;18.560;2023-01-20T20:45:45;102132.34;;;4.37;57.63
28797;BME280;24974;54.444;18.560;2023-01-20T20:48:16;102142.25;;;3.72;59.53
28797;BME280;24974;54.444;18.560;2023-01-20T20:50:47;102147.56;;;3.30;60.60
28797;BME280;24974;54.444;18.560;2023-01-20T20:53:19;102146.03;;;3.34;61.12